Wingate, Indiana
Current Conditions -  °F | °C
As of 10:54 AM on Sunday 21 Dec 2014 (Local Time) from KLAF Reporting Station
Scattered Clouds Scattered Clouds  
Wind Chill: 27°   Ceiling: Unl
Heat Index: 33°   Visibility: 8mi
Dew Point: 26°   Wind: 7mph
Humidity: 75%   Direction: 170°S
Pressure: 30.27"   Gusts: NA
Location:  40.17°N, 87.07°W
Report Text: KLAF 211554Z 17006KT 8SM FEW039 SCT050 01/M03 A3027 RMK AO2 SLP255 T00061033
Loading
Personal Weather Stations






























Interactive Weather Map New forecast layout! Learn more

10-Day Weather Forecast

Advertisements
Track Severe Weather on mobile